sensor_id;sensor_type;location;lat;lon;timestamp;pressure;altitude;pressure_sealevel;temperature;humidity
62928;BME280;51070;52.236;-0.892;2022-08-25T00:01:23;100906.94;;;19.42;75.79
62928;BME280;51070;52.236;-0.892;2022-08-25T00:03:49;100900.80;;;19.37;76.05
62928;BME280;51070;52.236;-0.892;2022-08-25T00:06:14;100899.23;;;19.35;75.98
62928;BME280;51070;52.236;-0.892;2022-08-25T00:08:39;100899.23;;;19.33;76.19
62928;BME280;51070;52.236;-0.892;2022-08-25T00:11:09;100899.77;;;19.30;76.16
62928;BME280;51070;52.236;-0.892;2022-08-25T00:13:37;100899.25;;;19.26;76.17
62928;BME280;51070;52.236;-0.892;2022-08-25T00:16:02;100899.77;;;19.21;76.20
62928;BME280;51070;52.236;-0.892;2022-08-25T00:18:27;100899.41;;;19.18;76.51
62928;BME280;51070;52.236;-0.892;2022-08-25T00:20:53;100901.52;;;19.19;76.55
62928;BME280;51070;52.236;-0.892;2022-08-25T00:23:18;100902.75;;;19.19;76.50
62928;BME280;51070;52.236;-0.892;2022-08-25T00:25:44;100902.39;;;19.18;76.51
62928;BME280;51070;52.236;-0.892;2022-08-25T00:28:10;100898.54;;;19.19;76.69
62928;BME280;51070;52.236;-0.892;2022-08-25T00:30:35;100895.04;;;19.19;76.77
62928;BME280;51070;52.236;-0.892;2022-08-25T00:33:01;100893.48;;;19.20;76.78
62928;BME280;51070;52.236;-0.892;2022-08-25T00:35:26;100889.27;;;19.20;76.75
62928;BME280;51070;52.236;-0.892;2022-08-25T00:37:52;100891.73;;;19.20;76.67
62928;BME280;51070;52.236;-0.892;2022-08-25T00:40:18;100894.16;;;19.18;76.69
62928;BME280;51070;52.236;-0.892;2022-08-25T00:42:44;100894.34;;;19.17;76.68
62928;BME280;51070;52.236;-0.892;2022-08-25T00:45:09;100890.14;;;19.15;76.80
62928;BME280;51070;52.236;-0.892;2022-08-25T00:47:35;100890.49;;;19.10;76.84
62928;BME280;51070;52.236;-0.892;2022-08-25T00:50:03;100891.18;;;19.06;76.97
62928;BME280;51070;52.236;-0.892;2022-08-25T00:52:33;100891.19;;;19.04;77.02
62928;BME280;51070;52.236;-0.892;2022-08-25T00:57:34;100888.39;;;19.01;77.29
62928;BME280;51070;52.236;-0.892;2022-08-25T01:00:02;100886.63;;;18.97;77.40
62928;BME280;51070;52.236;-0.892;2022-08-25T01:02:28;100884.52;;;18.92;77.53
62928;BME280;51070;52.236;-0.892;2022-08-25T01:04:53;100892.05;;;18.85;77.72
62928;BME280;51070;52.236;-0.892;2022-08-25T01:07:18;100897.65;;;18.78;77.88
62928;BME280;51070;52.236;-0.892;2022-08-25T01:09:45;100901.84;;;18.73;78.09
62928;BME280;51070;52.236;-0.892;2022-08-25T01:12:10;100903.41;;;18.71;78.14
62928;BME280;51070;52.236;-0.892;2022-08-25T01:14:36;100900.95;;;18.69;78.27
62928;BME280;51070;52.236;-0.892;2022-08-25T01:17:01;100901.64;;;18.70;78.26
62928;BME280;51070;52.236;-0.892;2022-08-25T01:19:27;100897.11;;;18.71;78.31
62928;BME280;51070;52.236;-0.892;2022-08-25T01:21:53;100896.59;;;18.74;78.33
62928;BME280;51070;52.236;-0.892;2022-08-25T01:24:30;100899.58;;;18.77;78.17
62928;BME280;51070;52.236;-0.892;2022-08-25T01:26:57;100899.23;;;18.79;78.28
62928;BME280;51070;52.236;-0.892;2022-08-25T01:29:22;100898.35;;;18.82;78.35
62928;BME280;51070;52.236;-0.892;2022-08-25T01:31:53;100897.48;;;18.86;78.23
62928;BME280;51070;52.236;-0.892;2022-08-25T01:34:20;100899.92;;;18.91;78.20
62928;BME280;51070;52.236;-0.892;2022-08-25T01:36:46;100902.39;;;18.96;78.21
62928;BME280;51070;52.236;-0.892;2022-08-25T01:39:11;100902.93;;;18.99;78.09
62928;BME280;51070;52.236;-0.892;2022-08-25T01:41:57;100901.16;;;19.01;78.10
62928;BME280;51070;52.236;-0.892;2022-08-25T01:44:23;100892.05;;;19.02;78.10
62928;BME280;51070;52.236;-0.892;2022-08-25T01:46:50;100888.38;;;19.03;78.12
62928;BME280;51070;52.236;-0.892;2022-08-25T01:49:16;100888.39;;;19.03;78.13
62928;BME280;51070;52.236;-0.892;2022-08-25T01:51:43;100888.90;;;19.02;78.06
62928;BME280;51070;52.236;-0.892;2022-08-25T01:54:08;100891.54;;;18.99;78.17
62928;BME280;51070;52.236;-0.892;2022-08-25T01:56:34;100889.26;;;18.97;78.34
62928;BME280;51070;52.236;-0.892;2022-08-25T01:58:59;100880.14;;;18.96;78.53
62928;BME280;51070;52.236;-0.892;2022-08-25T02:01:25;100879.11;;;18.94;78.62
62928;BME280;51070;52.236;-0.892;2022-08-25T02:03:51;100879.27;;;18.91;78.74
62928;BME280;51070;52.236;-0.892;2022-08-25T02:06:19;100879.45;;;18.90;78.86
62928;BME280;51070;52.236;-0.892;2022-08-25T02:08:44;100876.46;;;18.91;78.87
62928;BME280;51070;52.236;-0.892;2022-08-25T02:11:14;100882.59;;;18.90;78.90
62928;BME280;51070;52.236;-0.892;2022-08-25T02:13:40;100881.20;;;18.91;78.93
62928;BME280;51070;52.236;-0.892;2022-08-25T02:16:06;100882.25;;;18.92;78.85
62928;BME280;51070;52.236;-0.892;2022-08-25T02:18:32;100883.31;;;18.94;78.92
62928;BME280;51070;52.236;-0.892;2022-08-25T02:20:57;100883.65;;;18.97;78.82
62928;BME280;51070;52.236;-0.892;2022-08-25T02:23:23;100883.13;;;19.01;78.87
62928;BME280;51070;52.236;-0.892;2022-08-25T02:25:48;100878.94;;;19.04;78.72
62928;BME280;51070;52.236;-0.892;2022-08-25T02:28:14;100878.23;;;19.08;78.78
62928;BME280;51070;52.236;-0.892;2022-08-25T02:30:40;100869.13;;;19.12;78.81
62928;BME280;51070;52.236;-0.892;2022-08-25T02:33:06;100867.19;;;19.16;78.87
62928;BME280;51070;52.236;-0.892;2022-08-25T02:35:33;100866.31;;;19.17;78.70
62928;BME280;51070;52.236;-0.892;2022-08-25T02:37:58;100864.92;;;19.15;79.08
62928;BME280;51070;52.236;-0.892;2022-08-25T02:40:23;100865.98;;;19.14;79.13
62928;BME280;51070;52.236;-0.892;2022-08-25T02:42:49;100865.45;;;19.15;79.17
62928;BME280;51070;52.236;-0.892;2022-08-25T02:45:15;100867.89;;;19.14;79.23
62928;BME280;51070;52.236;-0.892;2022-08-25T02:47:42;100870.88;;;19.13;79.07
62928;BME280;51070;52.236;-0.892;2022-08-25T02:50:08;100872.62;;;19.12;79.14
62928;BME280;51070;52.236;-0.892;2022-08-25T02:52:34;100870.52;;;19.09;79.11
62928;BME280;51070;52.236;-0.892;2022-08-25T02:55:00;100871.40;;;19.06;79.22
62928;BME280;51070;52.236;-0.892;2022-08-25T02:57:28;100872.80;;;19.02;79.37
62928;BME280;51070;52.236;-0.892;2022-08-25T02:59:54;100867.36;;;19.00;79.46
62928;BME280;51070;52.236;-0.892;2022-08-25T03:02:19;100866.67;;;18.99;79.63
62928;BME280;51070;52.236;-0.892;2022-08-25T03:04:45;100860.90;;;18.99;79.67
62928;BME280;51070;52.236;-0.892;2022-08-25T03:07:11;100855.83;;;18.99;79.73
62928;BME280;51070;52.236;-0.892;2022-08-25T03:09:36;100850.91;;;19.00;79.84
62928;BME280;51070;52.236;-0.892;2022-08-25T03:12:02;100851.80;;;19.00;79.91
62928;BME280;51070;52.236;-0.892;2022-08-25T03:14:27;100851.08;;;19.01;79.89
62928;BME280;51070;52.236;-0.892;2022-08-25T03:16:54;100849.14;;;19.01;79.77
62928;BME280;51070;52.236;-0.892;2022-08-25T03:19:19;100845.29;;;19.01;79.90
62928;BME280;51070;52.236;-0.892;2022-08-25T03:21:45;100844.95;;;19.02;79.82
62928;BME280;51070;52.236;-0.892;2022-08-25T03:24:10;100845.64;;;19.01;79.80
62928;BME280;51070;52.236;-0.892;2022-08-25T03:26:36;100845.31;;;19.00;79.96
62928;BME280;51070;52.236;-0.892;2022-08-25T03:29:21;100839.50;;;19.00;79.89
62928;BME280;51070;52.236;-0.892;2022-08-25T03:31:48;100830.76;;;19.02;79.79
62928;BME280;51070;52.236;-0.892;2022-08-25T03:34:14;100829.00;;;19.02;79.78
62928;BME280;51070;52.236;-0.892;2022-08-25T03:36:41;100831.11;;;19.00;79.94
62928;BME280;51070;52.236;-0.892;2022-08-25T03:39:07;100829.01;;;19.00;79.96
62928;BME280;51070;52.236;-0.892;2022-08-25T03:41:33;100827.63;;;18.99;79.77
62928;BME280;51070;52.236;-0.892;2022-08-25T03:43:58;100824.80;;;18.96;79.85
62928;BME280;51070;52.236;-0.892;2022-08-25T03:46:25;100815.36;;;18.93;79.99
62928;BME280;51070;52.236;-0.892;2022-08-25T03:48:51;100815.35;;;18.91;80.11
62928;BME280;51070;52.236;-0.892;2022-08-25T03:53:46;100806.09;;;18.88;80.24
62928;BME280;51070;52.236;-0.892;2022-08-25T03:56:11;100798.02;;;18.85;80.34
62928;BME280;51070;52.236;-0.892;2022-08-25T03:58:37;100801.88;;;18.82;80.31
62928;BME280;51070;52.236;-0.892;2022-08-25T04:01:02;100809.23;;;18.79;80.58
62928;BME280;51070;52.236;-0.892;2022-08-25T04:03:28;100812.55;;;18.76;80.66
62928;BME280;51070;52.236;-0.892;2022-08-25T04:05:53;100804.85;;;18.75;80.91
62928;BME280;51070;52.236;-0.892;2022-08-25T04:08:18;100799.07;;;18.75;80.87
62928;BME280;51070;52.236;-0.892;2022-08-25T04:10:43;100785.94;;;18.74;81.03
62928;BME280;51070;52.236;-0.892;2022-08-25T04:13:09;100777.71;;;18.75;81.14
62928;BME280;51070;52.236;-0.892;2022-08-25T04:15:36;100772.46;;;18.74;81.31
62928;BME280;51070;52.236;-0.892;2022-08-25T04:18:01;100766.35;;;18.71;81.47
62928;BME280;51070;52.236;-0.892;2022-08-25T04:20:27;100763.20;;;18.70;81.76
62928;BME280;51070;52.236;-0.892;2022-08-25T04:22:52;100767.05;;;18.71;81.90
62928;BME280;51070;52.236;-0.892;2022-08-25T04:25:19;100778.95;;;18.73;81.90
62928;BME280;51070;52.236;-0.892;2022-08-25T04:27:44;100780.86;;;18.75;81.95
62928;BME280;51070;52.236;-0.892;2022-08-25T04:30:10;100791.56;;;18.77;82.03
62928;BME280;51070;52.236;-0.892;2022-08-25T04:32:36;100806.08;;;18.79;82.00
62928;BME280;51070;52.236;-0.892;2022-08-25T04:35:01;100812.91;;;18.83;82.23
62928;BME280;51070;52.236;-0.892;2022-08-25T04:37:27;100822.19;;;18.89;82.37
62928;BME280;51070;52.236;-0.892;2022-08-25T04:39:52;100820.27;;;18.93;82.16
62928;BME280;51070;52.236;-0.892;2022-08-25T04:42:18;100805.21;;;18.94;82.06
62928;BME280;51070;52.236;-0.892;2022-08-25T04:44:43;100804.70;;;18.94;82.38
62928;BME280;51070;52.236;-0.892;2022-08-25T04:47:08;100816.58;;;18.95;82.57
62928;BME280;51070;52.236;-0.892;2022-08-25T04:49:35;100823.41;;;18.96;82.77
62928;BME280;51070;52.236;-0.892;2022-08-25T04:52:01;100830.61;;;18.94;82.97
62928;BME280;51070;52.236;-0.892;2022-08-25T04:54:26;100834.09;;;18.92;83.10
62928;BME280;51070;52.236;-0.892;2022-08-25T04:56:52;100819.55;;;18.91;83.18
62928;BME280;51070;52.236;-0.892;2022-08-25T04:59:17;100804.15;;;18.92;83.04
62928;BME280;51070;52.236;-0.892;2022-08-25T05:01:43;100802.40;;;18.87;83.01
62928;BME280;51070;52.236;-0.892;2022-08-25T05:04:11;100815.71;;;18.83;83.07
62928;BME280;51070;52.236;-0.892;2022-08-25T05:06:38;100824.10;;;18.79;83.29
62928;BME280;51070;52.236;-0.892;2022-08-25T05:09:04;100829.20;;;18.78;83.39
62928;BME280;51070;52.236;-0.892;2022-08-25T05:11:30;100827.25;;;18.75;83.38
62928;BME280;51070;52.236;-0.892;2022-08-25T05:13:56;100837.07;;;18.72;83.87
62928;BME280;51070;52.236;-0.892;2022-08-25T05:16:22;100843.02;;;18.70;83.91
62928;BME280;51070;52.236;-0.892;2022-08-25T05:18:48;100848.09;;;18.65;84.03
62928;BME280;51070;52.236;-0.892;2022-08-25T05:21:18;100846.52;;;18.63;84.14
62928;BME280;51070;52.236;-0.892;2022-08-25T05:23:44;100849.48;;;18.60;84.16
62928;BME280;51070;52.236;-0.892;2022-08-25T05:26:15;100850.54;;;18.61;84.21
62928;BME280;51070;52.236;-0.892;2022-08-25T05:28:41;100846.70;;;18.61;84.44
62928;BME280;51070;52.236;-0.892;2022-08-25T05:31:08;100844.23;;;18.62;84.44
62928;BME280;51070;52.236;-0.892;2022-08-25T05:33:34;100834.27;;;18.65;84.33
62928;BME280;51070;52.236;-0.892;2022-08-25T05:35:59;100831.63;;;18.68;84.23
62928;BME280;51070;52.236;-0.892;2022-08-25T05:38:25;100834.09;;;18.69;84.23
62928;BME280;51070;52.236;-0.892;2022-08-25T05:41:12;100834.44;;;18.72;84.28
62928;BME280;51070;52.236;-0.892;2022-08-25T05:43:37;100841.79;;;18.74;84.24
62928;BME280;51070;52.236;-0.892;2022-08-25T05:46:04;100844.59;;;18.75;84.49
62928;BME280;51070;52.236;-0.892;2022-08-25T05:48:29;100852.65;;;18.79;84.35
62928;BME280;51070;52.236;-0.892;2022-08-25T05:50:55;100852.83;;;18.83;84.17
62928;BME280;51070;52.236;-0.892;2022-08-25T05:53:21;100847.58;;;18.86;83.96
62928;BME280;51070;52.236;-0.892;2022-08-25T05:55:47;100847.23;;;18.88;83.77
62928;BME280;51070;52.236;-0.892;2022-08-25T05:58:14;100844.08;;;18.89;83.51
62928;BME280;51070;52.236;-0.892;2022-08-25T06:00:39;100845.66;;;18.88;83.11
62928;BME280;51070;52.236;-0.892;2022-08-25T06:03:05;100859.48;;;18.87;83.18
62928;BME280;51070;52.236;-0.892;2022-08-25T06:05:31;100871.02;;;18.85;83.06
62928;BME280;51070;52.236;-0.892;2022-08-25T06:07:56;100873.84;;;18.83;82.91
62928;BME280;51070;52.236;-0.892;2022-08-25T06:10:22;100883.11;;;18.79;82.60
62928;BME280;51070;52.236;-0.892;2022-08-25T06:12:47;100890.82;;;18.76;82.65
62928;BME280;51070;52.236;-0.892;2022-08-25T06:15:17;100899.55;;;18.72;82.37
62928;BME280;51070;52.236;-0.892;2022-08-25T06:17:43;100910.39;;;18.66;82.21
62928;BME280;51070;52.236;-0.892;2022-08-25T06:20:10;100919.50;;;18.60;82.33
62928;BME280;51070;52.236;-0.892;2022-08-25T06:22:36;100923.33;;;18.57;82.38
62928;BME280;51070;52.236;-0.892;2022-08-25T06:25:04;100921.75;;;18.55;82.51
62928;BME280;51070;52.236;-0.892;2022-08-25T06:27:29;100916.84;;;18.54;82.45
62928;BME280;51070;52.236;-0.892;2022-08-25T06:29:55;100906.15;;;18.54;82.49
62928;BME280;51070;52.236;-0.892;2022-08-25T06:32:20;100899.00;;;18.54;82.35
62928;BME280;51070;52.236;-0.892;2022-08-25T06:34:46;100900.70;;;18.53;82.08
62928;BME280;51070;52.236;-0.892;2022-08-25T06:37:11;100902.80;;;18.53;82.20
62928;BME280;51070;52.236;-0.892;2022-08-25T06:39:36;100906.52;;;18.55;82.42
62928;BME280;51070;52.236;-0.892;2022-08-25T06:42:02;100909.51;;;18.59;82.57
62928;BME280;51070;52.236;-0.892;2022-08-25T06:44:27;100902.69;;;18.65;82.00
62928;BME280;51070;52.236;-0.892;2022-08-25T06:46:52;100900.95;;;18.68;81.78
62928;BME280;51070;52.236;-0.892;2022-08-25T06:49:18;100898.33;;;18.67;81.38
62928;BME280;51070;52.236;-0.892;2022-08-25T06:51:44;100897.80;;;18.65;81.10
62928;BME280;51070;52.236;-0.892;2022-08-25T06:54:10;100901.98;;;18.62;80.98
62928;BME280;51070;52.236;-0.892;2022-08-25T06:56:36;100905.12;;;18.58;81.01
62928;BME280;51070;52.236;-0.892;2022-08-25T06:59:03;100909.87;;;18.57;80.97
62928;BME280;51070;52.236;-0.892;2022-08-25T07:01:29;100914.58;;;18.55;81.12
62928;BME280;51070;52.236;-0.892;2022-08-25T07:03:57;100914.52;;;18.53;81.15
62928;BME280;51070;52.236;-0.892;2022-08-25T07:06:24;100916.80;;;18.51;81.09
62928;BME280;51070;52.236;-0.892;2022-08-25T07:08:49;100917.86;;;18.51;81.24
62928;BME280;51070;52.236;-0.892;2022-08-25T07:11:15;100917.68;;;18.51;81.11
62928;BME280;51070;52.236;-0.892;2022-08-25T07:13:42;100923.44;;;18.48;81.03
62928;BME280;51070;52.236;-0.892;2022-08-25T07:16:07;100922.91;;;18.46;81.13
62928;BME280;51070;52.236;-0.892;2022-08-25T07:18:35;100922.57;;;18.45;80.97
62928;BME280;51070;52.236;-0.892;2022-08-25T07:21:00;100922.21;;;18.45;80.76
62928;BME280;51070;52.236;-0.892;2022-08-25T07:23:25;100922.91;;;18.46;80.97
62928;BME280;51070;52.236;-0.892;2022-08-25T07:25:51;100917.50;;;18.49;80.92
62928;BME280;51070;52.236;-0.892;2022-08-25T07:28:17;100912.61;;;18.53;80.81
62928;BME280;51070;52.236;-0.892;2022-08-25T07:30:43;100908.28;;;18.56;80.48
62928;BME280;51070;52.236;-0.892;2022-08-25T07:33:08;100909.50;;;18.58;80.29
62928;BME280;51070;52.236;-0.892;2022-08-25T07:35:34;100909.34;;;18.60;80.29
62928;BME280;51070;52.236;-0.892;2022-08-25T07:38:01;100914.25;;;18.62;79.68
62928;BME280;51070;52.236;-0.892;2022-08-25T07:40:34;100913.37;;;18.61;79.57
62928;BME280;51070;52.236;-0.892;2022-08-25T07:43:02;100914.92;;;18.59;79.73
62928;BME280;51070;52.236;-0.892;2022-08-25T07:45:29;100912.83;;;18.57;79.42
62928;BME280;51070;52.236;-0.892;2022-08-25T07:48:00;100912.65;;;18.55;79.36
62928;BME280;51070;52.236;-0.892;2022-08-25T07:50:26;100912.80;;;18.54;79.08
62928;BME280;51070;52.236;-0.892;2022-08-25T07:52:54;100911.60;;;18.55;79.15
62928;BME280;51070;52.236;-0.892;2022-08-25T07:55:20;100916.67;;;18.57;79.34
62928;BME280;51070;52.236;-0.892;2022-08-25T07:57:46;100922.61;;;18.58;79.02
62928;BME280;51070;52.236;-0.892;2022-08-25T08:00:12;100921.59;;;18.57;78.87
62928;BME280;51070;52.236;-0.892;2022-08-25T08:02:39;100920.52;;;18.55;78.69
62928;BME280;51070;52.236;-0.892;2022-08-25T08:05:05;100921.00;;;18.53;78.65
62928;BME280;51070;52.236;-0.892;2022-08-25T08:07:30;100922.41;;;18.51;78.72
62928;BME280;51070;52.236;-0.892;2022-08-25T08:09:56;100922.05;;;18.49;78.78
62928;BME280;51070;52.236;-0.892;2022-08-25T08:12:22;100924.31;;;18.46;78.84
62928;BME280;51070;52.236;-0.892;2022-08-25T08:14:49;100927.99;;;18.45;79.46
62928;BME280;51070;52.236;-0.892;2022-08-25T08:17:14;100931.31;;;18.48;79.58
62928;BME280;51070;52.236;-0.892;2022-08-25T08:19:40;100928.69;;;18.48;79.11
62928;BME280;51070;52.236;-0.892;2022-08-25T08:22:05;100923.80;;;18.49;78.92
62928;BME280;51070;52.236;-0.892;2022-08-25T08:24:32;100913.66;;;18.52;78.96
62928;BME280;51070;52.236;-0.892;2022-08-25T08:27:03;100914.04;;;18.57;78.80
62928;BME280;51070;52.236;-0.892;2022-08-25T08:29:28;100911.60;;;18.59;78.67
62928;BME280;51070;52.236;-0.892;2022-08-25T08:31:54;100909.87;;;18.61;78.87
62928;BME280;51070;52.236;-0.892;2022-08-25T08:34:19;100904.98;;;18.63;78.64
62928;BME280;51070;52.236;-0.892;2022-08-25T08:36:44;100904.11;;;18.66;78.70
62928;BME280;51070;52.236;-0.892;2022-08-25T08:39:10;100907.08;;;18.71;79.07
62928;BME280;51070;52.236;-0.892;2022-08-25T08:41:40;100903.77;;;18.75;78.67
62928;BME280;51070;52.236;-0.892;2022-08-25T08:52:35;100899.55;;;18.70;78.28
62928;BME280;51070;52.236;-0.892;2022-08-25T08:55:03;100896.92;;;18.67;78.28
62928;BME280;51070;52.236;-0.892;2022-08-25T08:57:29;100893.77;;;18.65;78.78
62928;BME280;51070;52.236;-0.892;2022-08-25T09:00:00;100887.47;;;18.66;78.67
62928;BME280;51070;52.236;-0.892;2022-08-25T09:05:14;100886.60;;;18.68;78.73
62928;BME280;51070;52.236;-0.892;2022-08-25T09:07:47;100888.35;;;18.73;79.00
62928;BME280;51070;52.236;-0.892;2022-08-25T09:10:14;100887.49;;;18.80;78.87
62928;BME280;51070;52.236;-0.892;2022-08-25T09:12:45;100889.42;;;18.86;79.09
62928;BME280;51070;52.236;-0.892;2022-08-25T09:15:32;100886.10;;;18.90;78.44
62928;BME280;51070;52.236;-0.892;2022-08-25T09:18:22;100890.30;;;18.91;78.58
62928;BME280;51070;52.236;-0.892;2022-08-25T09:20:58;100892.23;;;18.86;78.07
62928;BME280;51070;52.236;-0.892;2022-08-25T09:23:42;100895.20;;;18.82;78.14
62928;BME280;51070;52.236;-0.892;2022-08-25T09:28:48;100902.02;;;18.85;78.55
62928;BME280;51070;52.236;-0.892;2022-08-25T09:31:19;100910.26;;;18.86;78.74
62928;BME280;51070;52.236;-0.892;2022-08-25T09:33:45;100916.04;;;18.83;78.56
62928;BME280;51070;52.236;-0.892;2022-08-25T09:36:11;100919.02;;;18.82;78.37
62928;BME280;51070;52.236;-0.892;2022-08-25T09:38:37;100917.63;;;18.83;78.45
62928;BME280;51070;52.236;-0.892;2022-08-25T09:41:03;100918.66;;;18.83;78.33
62928;BME280;51070;52.236;-0.892;2022-08-25T09:43:35;100917.61;;;18.82;78.79
62928;BME280;51070;52.236;-0.892;2022-08-25T09:46:07;100920.59;;;18.82;78.51
62928;BME280;51070;52.236;-0.892;2022-08-25T09:51:11;100916.03;;;18.77;78.19
62928;BME280;51070;52.236;-0.892;2022-08-25T09:53:42;100911.10;;;18.75;78.25
62928;BME280;51070;52.236;-0.892;2022-08-25T09:56:11;100904.11;;;18.75;78.43
62928;BME280;51070;52.236;-0.892;2022-08-25T09:58:36;100900.27;;;18.78;78.41
62928;BME280;51070;52.236;-0.892;2022-08-25T10:01:06;100894.31;;;18.79;78.07
62928;BME280;51070;52.236;-0.892;2022-08-25T10:03:35;100890.11;;;18.80;77.78
62928;BME280;51070;52.236;-0.892;2022-08-25T10:06:05;100892.05;;;18.78;77.42
62928;BME280;51070;52.236;-0.892;2022-08-25T10:08:38;100897.13;;;18.76;77.42
62928;BME280;51070;52.236;-0.892;2022-08-25T10:11:05;100896.77;;;18.77;77.45
62928;BME280;51070;52.236;-0.892;2022-08-25T10:13:46;100895.02;;;18.79;77.28
62928;BME280;51070;52.236;-0.892;2022-08-25T10:16:20;100900.10;;;18.81;77.13
62928;BME280;51070;52.236;-0.892;2022-08-25T10:19:05;100906.05;;;18.81;77.06
62928;BME280;51070;52.236;-0.892;2022-08-25T10:21:31;100909.20;;;18.84;77.22
62928;BME280;51070;52.236;-0.892;2022-08-25T10:23:57;100902.73;;;18.87;77.00
62928;BME280;51070;52.236;-0.892;2022-08-25T10:26:47;100894.16;;;18.88;76.78
62928;BME280;51070;52.236;-0.892;2022-08-25T10:31:45;100855.98;;;18.95;76.52
62928;BME280;51070;52.236;-0.892;2022-08-25T10:39:37;100859.83;;;19.06;76.12
62928;BME280;51070;52.236;-0.892;2022-08-25T10:44:43;100855.11;;;19.05;75.89
62928;BME280;51070;52.236;-0.892;2022-08-25T10:50:39;100830.41;;;18.94;76.01
62928;BME280;51070;52.236;-0.892;2022-08-25T11:00:46;100847.57;;;18.92;75.96
62928;BME280;51070;52.236;-0.892;2022-08-25T11:03:18;100864.73;;;18.87;75.72
62928;BME280;51070;52.236;-0.892;2022-08-25T11:05:54;100871.73;;;18.84;75.90
62928;BME280;51070;52.236;-0.892;2022-08-25T11:10:55;100880.66;;;18.85;76.17
62928;BME280;51070;52.236;-0.892;2022-08-25T11:13:35;100888.02;;;18.87;75.41
62928;BME280;51070;52.236;-0.892;2022-08-25T11:16:05;100897.48;;;18.86;74.65
62928;BME280;51070;52.236;-0.892;2022-08-25T11:18:43;100908.85;;;18.85;74.33
62928;BME280;51070;52.236;-0.892;2022-08-25T11:21:11;100905.52;;;18.85;73.98
62928;BME280;51070;52.236;-0.892;2022-08-25T11:23:45;100905.89;;;18.88;73.98
62928;BME280;51070;52.236;-0.892;2022-08-25T11:26:12;100911.50;;;18.88;73.81
62928;BME280;51070;52.236;-0.892;2022-08-25T11:31:02;100928.30;;;18.89;74.27
62928;BME280;51070;52.236;-0.892;2022-08-25T11:33:28;100930.21;;;18.84;73.83
62928;BME280;51070;52.236;-0.892;2022-08-25T11:36:02;100922.50;;;18.80;73.77
62928;BME280;51070;52.236;-0.892;2022-08-25T11:51:43;100943.66;;;18.67;74.03
62928;BME280;51070;52.236;-0.892;2022-08-25T12:02:05;100949.10;;;18.74;72.41
62928;BME280;51070;52.236;-0.892;2022-08-25T12:04:38;100949.11;;;18.79;72.31
62928;BME280;51070;52.236;-0.892;2022-08-25T12:09:34;100940.91;;;18.89;71.94
62928;BME280;51070;52.236;-0.892;2022-08-25T12:17:40;100953.02;;;18.99;71.38
62928;BME280;51070;52.236;-0.892;2022-08-25T12:20:06;100954.77;;;18.98;71.48
62928;BME280;51070;52.236;-0.892;2022-08-25T12:24:59;100961.41;;;19.02;71.20
62928;BME280;51070;52.236;-0.892;2022-08-25T12:27:48;100967.02;;;19.02;71.08
62928;BME280;51070;52.236;-0.892;2022-08-25T12:37:55;100980.80;;;18.78;72.34
62928;BME280;51070;52.236;-0.892;2022-08-25T12:40:23;100985.34;;;18.73;72.62
62928;BME280;51070;52.236;-0.892;2022-08-25T12:42:51;100986.20;;;18.69;72.98
62928;BME280;51070;52.236;-0.892;2022-08-25T12:45:37;100988.31;;;18.67;73.25
62928;BME280;51070;52.236;-0.892;2022-08-25T12:50:47;100988.98;;;18.62;74.05
62928;BME280;51070;52.236;-0.892;2022-08-25T12:53:33;100991.27;;;18.61;74.25
62928;BME280;51070;52.236;-0.892;2022-08-25T12:55:59;100992.83;;;18.63;74.59
62928;BME280;51070;52.236;-0.892;2022-08-25T12:58:27;100994.93;;;18.63;74.91
62928;BME280;51070;52.236;-0.892;2022-08-25T13:01:12;100995.30;;;18.62;75.67
62928;BME280;51070;52.236;-0.892;2022-08-25T13:03:59;100998.09;;;18.63;76.21
62928;BME280;51070;52.236;-0.892;2022-08-25T13:14:41;101018.48;;;18.91;75.56
62928;BME280;51070;52.236;-0.892;2022-08-25T13:17:07;101017.45;;;18.94;75.42
62928;BME280;51070;52.236;-0.892;2022-08-25T13:19:33;101016.19;;;18.90;75.35
62928;BME280;51070;52.236;-0.892;2022-08-25T13:21:59;101018.31;;;18.89;75.59
62928;BME280;51070;52.236;-0.892;2022-08-25T13:24:26;101023.90;;;18.90;75.76
62928;BME280;51070;52.236;-0.892;2022-08-25T13:26:56;101027.43;;;18.95;75.45
62928;BME280;51070;52.236;-0.892;2022-08-25T13:29:23;101034.27;;;18.97;74.75
62928;BME280;51070;52.236;-0.892;2022-08-25T13:32:07;101032.51;;;18.97;74.12
62928;BME280;51070;52.236;-0.892;2022-08-25T13:34:38;101034.09;;;18.95;73.95
62928;BME280;51070;52.236;-0.892;2022-08-25T13:37:09;101032.86;;;18.99;73.82
62928;BME280;51070;52.236;-0.892;2022-08-25T13:42:34;101036.69;;;18.90;72.78
62928;BME280;51070;52.236;-0.892;2022-08-25T13:45:01;101040.88;;;18.81;73.16
62928;BME280;51070;52.236;-0.892;2022-08-25T13:47:39;101039.63;;;18.76;72.93
62928;BME280;51070;52.236;-0.892;2022-08-25T13:55:24;101027.58;;;18.87;72.52
62928;BME280;51070;52.236;-0.892;2022-08-25T13:57:51;101024.80;;;18.96;72.46
62928;BME280;51070;52.236;-0.892;2022-08-25T14:00:30;101016.43;;;19.07;72.41
62928;BME280;51070;52.236;-0.892;2022-08-25T14:02:57;101014.20;;;19.38;71.77
62928;BME280;51070;52.236;-0.892;2022-08-25T14:05:39;101013.53;;;19.60;70.62
62928;BME280;51070;52.236;-0.892;2022-08-25T14:08:06;101015.61;;;19.87;70.93
62928;BME280;51070;52.236;-0.892;2022-08-25T14:10:39;101012.77;;;20.09;70.37
62928;BME280;51070;52.236;-0.892;2022-08-25T14:13:14;101004.48;;;20.27;68.82
62928;BME280;51070;52.236;-0.892;2022-08-25T14:15:41;101010.42;;;20.45;68.45
62928;BME280;51070;52.236;-0.892;2022-08-25T14:18:17;101017.23;;;20.55;68.20
62928;BME280;51070;52.236;-0.892;2022-08-25T14:20:47;101019.19;;;20.50;67.07
62928;BME280;51070;52.236;-0.892;2022-08-25T14:23:19;101016.59;;;20.34;67.06
62928;BME280;51070;52.236;-0.892;2022-08-25T14:25:47;101016.95;;;20.20;67.01
62928;BME280;51070;52.236;-0.892;2022-08-25T14:28:14;101019.27;;;20.08;67.60
62928;BME280;51070;52.236;-0.892;2022-08-25T14:31:00;101018.77;;;19.97;67.12